Time;durP1;ratioP1;P1;durP2;ratioP2;P2;SDS_P1;SDS_P2;PMS_P1;PMS_P2;Temp;Humidity;BMP_temperature;BMP_pressure;BME280_temperature;BME280_humidity;BME280_pressure;Samples;Min_cycle;Max_cycle;Signal;HPM_P1;HPM_P2
2023/08/29 00:01:34;;;;;;;6.20;1.20;;;14.20;99.90;;;;;;5113122;28;20055;-72
2023/08/29 00:04:20;;;;;;;6.97;1.75;;;14.20;99.90;;;;;;5114249;28;20055;-71
2023/08/29 00:07:06;;;;;;;4.10;1.45;;;14.20;99.90;;;;;;5114447;28;20056;-71
2023/08/29 00:09:52;;;;;;;3.58;0.93;;;14.10;99.90;;;;;;5111516;28;20658;-72
2023/08/29 00:12:42;;;;;;;2.88;1.00;;;14.10;99.90;;;;;;5111939;28;20522;-72
2023/08/29 00:15:28;;;;;;;3.88;1.10;;;14.10;99.90;;;;;;5111901;28;20224;-70
2023/08/29 00:18:14;;;;;;;4.28;1.00;;;14.00;99.90;;;;;;5113424;28;20692;-71
2023/08/29 00:21:00;;;;;;;3.22;1.13;;;14.00;99.90;;;;;;5111899;28;20055;-70
2023/08/29 00:23:48;;;;;;;5.25;1.55;;;14.00;99.90;;;;;;5112921;28;20100;-72
2023/08/29 00:26:34;;;;;;;2.20;1.00;;;14.00;99.90;;;;;;5112318;28;20087;-71
2023/08/29 00:29:20;;;;;;;4.75;1.92;;;14.00;99.90;;;;;;5115801;28;20105;-70
2023/08/29 00:32:06;;;;;;;5.03;2.05;;;14.00;99.90;;;;;;5111838;28;20055;-73
2023/08/29 00:34:52;;;;;;;6.10;2.28;;;14.00;99.90;;;;;;5114071;28;20047;-75
2023/08/29 00:37:38;;;;;;;5.72;2.72;;;14.10;99.90;;;;;;5111284;28;20422;-71
2023/08/29 00:40:31;;;;;;;4.78;2.17;;;14.10;99.90;;;;;;5111242;28;20406;-74
2023/08/29 00:43:18;;;;;;;4.50;1.85;;;14.20;99.90;;;;;;5111843;28;20057;-70
2023/08/29 00:46:06;;;;;;;5.75;1.90;;;14.20;99.90;;;;;;5111498;28;20070;-70
2023/08/29 00:48:54;;;;;;;4.95;1.88;;;14.20;99.90;;;;;;5112468;28;20406;-71
2023/08/29 00:51:40;;;;;;;5.75;2.75;;;14.20;99.90;;;;;;5110171;28;20056;-80
2023/08/29 00:54:26;;;;;;;4.80;2.60;;;14.30;99.90;;;;;;5113807;28;20453;-74
2023/08/29 00:57:13;;;;;;;7.53;3.00;;;14.20;99.90;;;;;;5112344;28;20056;-71
2023/08/29 00:59:59;;;;;;;7.95;4.13;;;14.20;99.90;;;;;;5110890;28;20055;-73
2023/08/29 01:02:46;;;;;;;6.85;3.45;;;14.20;99.90;;;;;;5111023;28;20055;-72
2023/08/29 01:05:32;;;;;;;6.70;4.13;;;14.10;99.90;;;;;;5111076;28;20048;-80
2023/08/29 01:08:18;;;;;;;5.80;3.20;;;14.10;99.90;;;;;;5113201;28;20384;-73
2023/08/29 01:11:50;;;;;;;7.78;3.70;;;14.10;99.90;;;;;;5110880;28;20392;-71
2023/08/29 01:14:45;;;;;;;5.35;2.70;;;14.10;99.90;;;;;;5107390;28;20193;-71
2023/08/29 01:17:38;;;;;;;5.57;3.65;;;14.00;99.90;;;;;;5110428;28;20116;-82
2023/08/29 01:20:27;;;;;;;4.55;2.65;;;14.00;99.90;;;;;;5112622;28;20749;-78
2023/08/29 01:23:39;;;;;;;6.32;3.67;;;14.00;99.90;;;;;;5111757;28;20048;-71
2023/08/29 01:26:26;;;;;;;6.38;2.60;;;13.90;99.90;;;;;;5110941;28;20047;-75
2023/08/29 01:29:13;;;;;;;8.20;4.07;;;13.80;99.90;;;;;;5110752;28;20044;-80
2023/08/29 01:32:01;;;;;;;6.95;3.17;;;13.80;99.90;;;;;;5111126;28;20055;-76
2023/08/29 01:34:49;;;;;;;7.90;3.40;;;13.80;99.90;;;;;;5111411;28;20090;-80
2023/08/29 01:37:35;;;;;;;7.25;3.10;;;13.80;99.90;;;;;;5110705;28;20051;-79
2023/08/29 01:40:21;;;;;;;5.53;3.20;;;13.80;99.90;;;;;;5110797;28;20540;-79
2023/08/29 01:43:07;;;;;;;6.07;2.92;;;13.70;99.90;;;;;;5111883;28;20039;-76
2023/08/29 01:45:53;;;;;;;5.25;2.88;;;13.70;99.90;;;;;;5111053;28;20509;-80
2023/08/29 01:48:40;;;;;;;4.18;2.53;;;13.70;99.90;;;;;;5110377;28;20063;-78
2023/08/29 01:51:27;;;;;;;7.28;3.03;;;13.70;99.90;;;;;;5111179;28;20055;-79
2023/08/29 01:54:13;;;;;;;4.88;2.75;;;13.70;99.90;;;;;;5111165;28;20437;-76
2023/08/29 01:57:01;;;;;;;7.05;2.95;;;13.70;99.90;;;;;;5111411;28;20063;-75
2023/08/29 01:59:48;;;;;;;7.45;3.67;;;13.60;99.90;;;;;;5111597;28;20063;-73
2023/08/29 02:02:34;;;;;;;6.07;2.75;;;13.60;99.90;;;;;;5112474;28;20051;-72
2023/08/29 02:05:20;;;;;;;5.28;2.13;;;13.60;99.90;;;;;;5109467;28;20051;-84
2023/08/29 02:08:07;;;;;;;8.05;3.03;;;13.60;99.90;;;;;;5109624;28;20500;-82
2023/08/29 02:10:53;;;;;;;6.57;2.67;;;13.60;99.90;;;;;;5110985;28;20043;-77
2023/08/29 02:13:39;;;;;;;4.22;2.20;;;13.60;99.90;;;;;;5112673;28;20134;-74
2023/08/29 02:16:25;;;;;;;5.35;2.85;;;13.60;99.90;;;;;;5113180;28;20098;-73
2023/08/29 02:19:11;;;;;;;5.75;2.45;;;13.60;99.90;;;;;;5112652;28;20055;-80
2023/08/29 02:21:57;;;;;;;6.10;2.00;;;13.60;99.90;;;;;;5115735;28;20138;-79
2023/08/29 02:24:47;;;;;;;4.10;2.17;;;13.60;99.90;;;;;;5109109;28;20487;-76
2023/08/29 02:27:33;;;;;;;4.82;2.00;;;13.60;99.90;;;;;;5112166;28;20051;-78
2023/08/29 02:30:19;;;;;;;4.70;2.05;;;13.50;99.90;;;;;;5110867;28;20047;-82
2023/08/29 02:33:05;;;;;;;5.72;2.35;;;13.50;99.90;;;;;;5109868;28;20152;-81
2023/08/29 02:35:51;;;;;;;4.85;2.00;;;13.50;99.90;;;;;;5109728;28;20083;-81
2023/08/29 02:38:38;;;;;;;6.88;2.10;;;13.50;99.90;;;;;;5109045;28;20058;-80
2023/08/29 02:41:24;;;;;;;3.65;1.65;;;13.40;99.90;;;;;;5109586;28;20105;-81
2023/08/29 02:44:10;;;;;;;4.03;1.80;;;13.40;99.90;;;;;;5110947;28;20107;-73
2023/08/29 02:46:56;;;;;;;3.38;1.65;;;13.40;99.90;;;;;;5110663;28;20047;-79
2023/08/29 02:49:42;;;;;;;3.53;1.70;;;13.30;99.90;;;;;;5109405;28;20066;-75
2023/08/29 02:52:28;;;;;;;3.63;1.80;;;13.30;99.90;;;;;;5111421;28;20145;-72
2023/08/29 02:55:15;;;;;;;5.93;1.48;;;13.30;99.90;;;;;;5109845;28;20085;-84
2023/08/29 02:58:01;;;;;;;3.72;1.67;;;13.20;99.90;;;;;;5096417;28;20083;-73
2023/08/29 03:00:53;;;;;;;4.10;1.60;;;13.20;99.90;;;;;;5109346;28;20059;-75
2023/08/29 03:03:39;;;;;;;6.03;1.52;;;13.20;99.90;;;;;;5108912;28;20059;-72
2023/08/29 03:06:26;;;;;;;4.15;2.10;;;13.20;99.90;;;;;;5095113;28;20566;-76
2023/08/29 03:09:12;;;;;;;3.50;1.83;;;13.20;99.90;;;;;;5111217;28;20408;-73
2023/08/29 03:11:58;;;;;;;4.18;1.90;;;13.20;99.90;;;;;;5109612;28;20060;-75
2023/08/29 03:14:45;;;;;;;7.05;2.30;;;13.20;99.90;;;;;;5113581;28;20082;-73
2023/08/29 03:17:31;;;;;;;4.10;2.22;;;13.10;99.90;;;;;;5116131;28;20063;-81
2023/08/29 03:20:17;;;;;;;4.50;2.10;;;13.10;99.90;;;;;;5113573;28;20057;-84
2023/08/29 03:23:03;;;;;;;4.35;2.83;;;13.10;99.90;;;;;;5112762;28;20050;-84
2023/08/29 03:25:49;;;;;;;6.10;2.85;;;13.10;99.90;;;;;;5114081;28;20880;-85
2023/08/29 03:28:37;;;;;;;4.10;2.03;;;13.10;99.90;;;;;;5113273;28;20384;-80
2023/08/29 03:31:23;;;;;;;5.03;2.47;;;13.10;99.90;;;;;;5111592;28;20055;-72
2023/08/29 03:34:09;;;;;;;3.72;2.30;;;13.10;99.90;;;;;;5112485;28;20105;-71
2023/08/29 03:36:55;;;;;;;4.88;2.42;;;13.20;99.90;;;;;;5113803;28;20048;-74
2023/08/29 03:39:41;;;;;;;4.40;2.10;;;13.10;99.90;;;;;;5112626;28;20043;-72
2023/08/29 03:42:27;;;;;;;4.13;2.08;;;13.10;99.90;;;;;;5113201;28;20384;-73
2023/08/29 03:45:13;;;;;;;3.17;1.77;;;13.10;99.90;;;;;;5112351;28;20487;-73
2023/08/29 03:47:59;;;;;;;9.95;3.35;;;13.10;99.90;;;;;;5115787;28;20468;-76
2023/08/29 03:50:45;;;;;;;5.05;2.53;;;13.10;99.90;;;;;;5112470;28;20058;-73
2023/08/29 03:53:33;;;;;;;6.22;2.15;;;13.10;99.90;;;;;;5112197;28;20147;-77
2023/08/29 03:56:19;;;;;;;5.40;1.95;;;13.10;99.90;;;;;;5112318;28;20052;-85
2023/08/29 03:59:05;;;;;;;3.55;2.00;;;13.10;99.90;;;;;;5111919;28;20502;-69
2023/08/29 04:01:51;;;;;;;4.70;2.10;;;13.00;99.90;;;;;;5112096;28;20063;-70
2023/08/29 04:04:37;;;;;;;5.22;2.38;;;13.00;99.90;;;;;;5112500;28;20134;-72
2023/08/29 04:07:25;;;;;;;4.03;1.75;;;13.00;99.90;;;;;;5112743;28;20379;-73
2023/08/29 04:10:12;;;;;;;4.40;1.90;;;13.00;99.90;;;;;;5113065;28;20087;-70
2023/08/29 04:12:58;;;;;;;5.50;2.30;;;13.00;99.90;;;;;;5110418;28;20048;-70
2023/08/29 04:15:44;;;;;;;5.40;2.40;;;13.00;99.90;;;;;;5113825;28;20051;-69
2023/08/29 04:18:32;;;;;;;5.60;2.75;;;13.00;99.90;;;;;;5113590;28;20063;-70
2023/08/29 04:21:18;;;;;;;6.22;2.65;;;13.00;99.90;;;;;;5110495;28;20047;-72
2023/08/29 04:24:04;;;;;;;3.72;2.22;;;13.00;99.90;;;;;;5110841;28;20040;-71
2023/08/29 04:26:50;;;;;;;5.75;2.95;;;13.00;99.90;;;;;;5111425;28;20054;-69
2023/08/29 04:29:37;;;;;;;5.30;2.58;;;12.90;99.90;;;;;;5113810;28;20050;-72
2023/08/29 04:32:24;;;;;;;6.18;2.38;;;12.90;99.90;;;;;;5110221;28;20125;-71
2023/08/29 04:35:10;;;;;;;7.70;2.83;;;12.90;99.90;;;;;;5112846;28;20130;-83
2023/08/29 04:37:56;;;;;;;5.07;2.70;;;12.90;99.90;;;;;;5111829;28;20087;-71
2023/08/29 04:40:43;;;;;;;5.88;2.65;;;12.80;99.90;;;;;;5111824;28;20048;-74
2023/08/29 04:43:29;;;;;;;5.32;2.38;;;12.80;99.90;;;;;;5112650;28;20459;-78
2023/08/29 04:46:15;;;;;;;5.30;2.40;;;12.80;99.90;;;;;;5111741;28;20495;-73
2023/08/29 04:49:01;;;;;;;5.90;2.05;;;12.80;99.90;;;;;;5113408;28;20048;-76
2023/08/29 04:51:47;;;;;;;3.40;1.63;;;12.80;99.90;;;;;;5111498;28;20138;-73
2023/08/29 04:54:33;;;;;;;5.80;2.00;;;12.70;99.90;;;;;;5113286;28;20051;-70
2023/08/29 04:57:20;;;;;;;5.75;2.08;;;12.70;99.90;;;;;;5111611;28;20105;-82
2023/08/29 05:00:09;;;;;;;4.03;2.08;;;12.70;99.90;;;;;;5111575;28;20439;-72
2023/08/29 05:02:55;;;;;;;6.43;2.40;;;12.70;99.90;;;;;;5112483;28;20059;-74
2023/08/29 05:05:46;;;;;;;5.47;2.40;;;12.70;99.90;;;;;;5111409;28;20379;-71
2023/08/29 05:08:34;;;;;;;5.78;2.15;;;12.70;99.90;;;;;;5112025;28;20204;-77
2023/08/29 05:11:20;;;;;;;5.32;2.80;;;12.70;99.90;;;;;;5112157;28;20062;-79
2023/08/29 05:14:06;;;;;;;7.78;2.92;;;12.70;99.90;;;;;;5112107;28;20047;-74
2023/08/29 05:16:53;;;;;;;7.05;2.97;;;12.70;99.90;;;;;;5112994;28;20044;-79
2023/08/29 05:19:40;;;;;;;6.65;2.83;;;12.70;99.90;;;;;;5111740;28;20443;-74
2023/08/29 05:22:26;;;;;;;5.60;2.70;;;12.80;99.90;;;;;;5113877;28;20051;-75
2023/08/29 05:25:12;;;;;;;4.68;2.63;;;12.80;99.90;;;;;;5111253;28;20048;-72
2023/08/29 05:27:59;;;;;;;7.30;3.00;;;12.90;99.90;;;;;;5113178;28;20424;-84
2023/08/29 05:30:45;;;;;;;6.00;2.67;;;13.00;99.90;;;;;;5115175;28;20047;-82
2023/08/29 05:33:31;;;;;;;6.65;2.97;;;13.10;99.90;;;;;;5110457;28;20059;-79
2023/08/29 05:36:17;;;;;;;6.30;3.00;;;13.20;99.90;;;;;;5111205;28;20134;-70
2023/08/29 05:39:03;;;;;;;5.35;2.90;;;13.30;99.90;;;;;;5109436;28;20044;-83
2023/08/29 05:41:50;;;;;;;6.57;2.80;;;13.40;99.90;;;;;;5111780;28;20058;-84
2023/08/29 05:44:38;;;;;;;4.80;2.00;;;13.50;99.90;;;;;;5110651;28;20040;-82
2023/08/29 05:47:24;;;;;;;6.15;2.47;;;13.60;99.90;;;;;;5096066;28;20491;-75
2023/08/29 05:50:10;;;;;;;4.35;2.42;;;13.70;99.90;;;;;;5110258;28;20051;-77
2023/08/29 05:52:56;;;;;;;4.18;2.15;;;13.80;99.90;;;;;;5110570;28;20090;-73
2023/08/29 05:55:42;;;;;;;4.63;2.22;;;13.90;99.90;;;;;;5111030;28;20087;-76
2023/08/29 05:58:28;;;;;;;5.07;2.55;;;14.00;99.90;;;;;;5109756;28;20599;-83
2023/08/29 06:01:14;;;;;;;3.92;1.80;;;14.10;99.90;;;;;;5111152;28;20062;-78
2023/08/29 06:04:04;;;;;;;6.72;2.47;;;14.20;99.90;;;;;;5110893;28;20498;-81
2023/08/29 06:06:50;;;;;;;4.88;2.13;;;14.40;99.90;;;;;;5110054;28;20051;-75
2023/08/29 06:09:36;;;;;;;5.60;2.22;;;14.60;99.90;;;;;;5110275;28;20124;-73
2023/08/29 06:12:23;;;;;;;3.70;1.80;;;14.70;99.90;;;;;;5111096;28;20059;-74
2023/08/29 06:15:09;;;;;;;4.15;1.75;;;14.90;99.90;;;;;;5108416;28;20063;-72
2023/08/29 06:17:55;;;;;;;6.68;2.13;;;15.10;99.90;;;;;;5111265;28;20071;-75
2023/08/29 06:20:41;;;;;;;4.80;1.98;;;15.30;99.90;;;;;;5111111;28;20056;-74
2023/08/29 06:23:28;;;;;;;5.90;1.77;;;15.50;99.90;;;;;;5109812;28;20052;-81
2023/08/29 06:26:15;;;;;;;4.28;1.73;;;15.70;99.90;;;;;;5110721;28;20059;-73
2023/08/29 06:29:02;;;;;;;5.32;1.63;;;15.80;99.90;;;;;;5111207;28;20407;-71
2023/08/29 06:31:48;;;;;;;4.80;1.45;;;16.00;99.90;;;;;;5108376;28;20048;-72
2023/08/29 06:34:34;;;;;;;5.88;1.98;;;16.20;99.90;;;;;;5109510;28;20112;-74
2023/08/29 06:37:21;;;;;;;5.75;2.15;;;16.20;99.90;;;;;;5109289;28;20058;-72
2023/08/29 06:40:10;;;;;;;5.47;2.50;;;16.20;99.90;;;;;;5111011;28;20050;-73
2023/08/29 06:42:56;;;;;;;8.55;2.88;;;16.20;99.90;;;;;;5109093;28;20044;-83
2023/08/29 06:45:42;;;;;;;8.93;3.00;;;16.10;99.90;;;;;;5110341;28;20051;-79
2023/08/29 06:48:28;;;;;;;5.95;2.88;;;16.10;99.90;;;;;;5109960;28;20048;-80
2023/08/29 06:51:14;;;;;;;4.93;2.35;;;16.10;99.90;;;;;;5111498;28;20056;-81
2023/08/29 06:54:01;;;;;;;4.68;2.00;;;16.10;99.90;;;;;;5115237;28;20413;-84
2023/08/29 06:56:49;;;;;;;4.57;2.55;;;16.10;99.90;;;;;;5114530;28;20070;-81
2023/08/29 06:59:35;;;;;;;6.88;2.65;;;16.10;99.90;;;;;;5114799;28;20552;-74
2023/08/29 07:02:21;;;;;;;5.72;3.00;;;16.10;99.90;;;;;;5114341;28;20104;-80
2023/08/29 07:05:07;;;;;;;7.88;3.20;;;16.20;99.90;;;;;;5113270;28;20159;-72
2023/08/29 07:07:53;;;;;;;5.55;2.30;;;16.20;99.90;;;;;;5116927;28;20069;-73
2023/08/29 07:10:39;;;;;;;6.13;2.97;;;16.30;99.90;;;;;;5098785;28;20059;-80
2023/08/29 07:13:25;;;;;;;3.80;2.03;;;16.30;99.90;;;;;;5112996;28;20113;-73
2023/08/29 07:16:11;;;;;;;5.43;2.28;;;16.50;99.90;;;;;;5114262;28;20096;-76
2023/08/29 07:18:58;;;;;;;4.55;1.58;;;16.60;99.90;;;;;;5113703;28;20538;-81
2023/08/29 07:21:44;;;;;;;5.32;2.03;;;16.80;99.90;;;;;;5114147;28;20464;-70
2023/08/29 07:24:30;;;;;;;4.68;2.28;;;16.80;99.90;;;;;;5114271;28;20091;-84
2023/08/29 07:27:16;;;;;;;8.27;2.42;;;16.90;99.90;;;;;;5111360;28;20075;-79
2023/08/29 07:30:03;;;;;;;15.25;3.95;;;17.20;99.90;;;;;;5113270;28;20047;-74
2023/08/29 07:32:49;;;;;;;3.38;1.90;;;17.40;99.90;;;;;;5114512;28;20467;-73
2023/08/29 07:35:35;;;;;;;3.55;1.50;;;17.60;99.90;;;;;;5115278;28;20052;-74
2023/08/29 07:38:22;;;;;;;5.03;1.60;;;17.80;99.90;;;;;;5113864;28;20047;-71
2023/08/29 07:41:08;;;;;;;2.85;1.00;;;17.70;99.90;;;;;;5113912;28;20044;-72
2023/08/29 07:43:54;;;;;;;3.65;0.95;;;17.70;99.90;;;;;;5114375;28;20044;-72
2023/08/29 07:46:40;;;;;;;2.40;0.77;;;17.80;99.90;;;;;;5112474;28;20055;-75
2023/08/29 07:49:27;;;;;;;3.20;0.90;;;17.90;99.90;;;;;;5112389;28;20052;-75
2023/08/29 07:52:13;;;;;;;2.45;1.02;;;18.00;99.90;;;;;;5113683;28;20056;-72
2023/08/29 07:54:59;;;;;;;2.45;1.08;;;18.10;99.90;;;;;;5112667;28;20498;-73
2023/08/29 07:57:45;;;;;;;4.32;1.00;;;18.10;99.90;;;;;;5113612;28;20587;-71
2023/08/29 08:00:32;;;;;;;3.10;1.05;;;18.30;99.90;;;;;;5114163;28;20058;-82
2023/08/29 08:03:18;;;;;;;2.20;0.80;;;18.50;99.90;;;;;;5112869;28;20059;-79
2023/08/29 08:06:04;;;;;;;4.05;1.00;;;18.80;99.90;;;;;;5114573;28;20461;-84
2023/08/29 08:08:50;;;;;;;3.30;1.00;;;18.90;99.90;;;;;;5115239;28;20050;-81
2023/08/29 08:11:36;;;;;;;2.65;0.80;;;18.90;99.90;;;;;;5113595;28;20059;-85
2023/08/29 08:14:23;;;;;;;1.20;0.55;;;19.00;99.90;;;;;;5111909;28;20050;-85
2023/08/29 08:17:09;;;;;;;2.83;0.93;;;18.90;99.90;;;;;;5113255;28;20059;-84
2023/08/29 08:19:55;;;;;;;4.25;1.50;;;19.10;99.90;;;;;;5113034;28;20487;-73
2023/08/29 08:22:42;;;;;;;1.80;0.70;;;19.10;99.90;;;;;;5112812;28;20048;-82
2023/08/29 08:25:28;;;;;;;1.90;0.57;;;18.80;99.90;;;;;;5112935;28;20057;-80
2023/08/29 08:28:14;;;;;;;2.40;0.50;;;18.80;99.90;;;;;;5112223;28;20052;-73
2023/08/29 08:31:00;;;;;;;1.77;0.60;;;18.80;99.90;;;;;;5112030;28;20051;-72
2023/08/29 08:33:46;;;;;;;3.42;0.85;;;18.90;99.90;;;;;;5111847;28;20043;-77
2023/08/29 08:36:33;;;;;;;2.28;0.98;;;18.80;99.90;;;;;;5111675;28;20050;-84
2023/08/29 08:39:21;;;;;;;3.17;0.98;;;18.80;99.90;;;;;;5111671;28;20051;-84
2023/08/29 08:42:14;;;;;;;2.47;1.02;;;18.70;99.90;;;;;;5113001;28;20047;-73
2023/08/29 08:45:04;;;;;;;2.95;1.27;;;18.80;99.90;;;;;;5111913;28;20048;-71
2023/08/29 08:47:51;;;;;;;2.53;1.10;;;18.70;99.90;;;;;;5115759;28;20055;-79
2023/08/29 08:50:38;;;;;;;2.60;1.30;;;18.60;99.90;;;;;;5111321;28;20395;-76
2023/08/29 08:53:27;;;;;;;2.75;1.30;;;18.70;99.90;;;;;;5113201;28;20051;-80
2023/08/29 08:56:14;;;;;;;2.75;1.20;;;18.60;99.90;;;;;;5112419;28;20108;-84
2023/08/29 08:59:00;;;;;;;3.08;1.52;;;18.70;99.90;;;;;;5110992;28;20051;-76
2023/08/29 09:01:46;;;;;;;3.25;1.75;;;18.70;99.90;;;;;;5111073;28;20048;-78
2023/08/29 09:04:32;;;;;;;3.88;1.92;;;18.70;99.90;;;;;;5112143;28;20052;-72
2023/08/29 09:07:19;;;;;;;5.35;2.25;;;18.90;99.90;;;;;;5110533;28;20726;-72
2023/08/29 09:10:26;;;;;;;3.47;2.00;;;18.90;99.90;;;;;;5112087;28;20077;-71
2023/08/29 09:13:16;;;;;;;4.57;2.38;;;18.90;99.90;;;;;;5111516;28;20047;-73
2023/08/29 09:16:02;;;;;;;3.75;1.90;;;19.00;99.90;;;;;;5112815;28;20074;-72
2023/08/29 09:18:51;;;;;;;3.30;2.00;;;19.00;99.90;;;;;;5111013;28;20136;-72
2023/08/29 09:21:42;;;;;;;4.32;1.95;;;19.10;99.90;;;;;;5110481;28;20138;-76
2023/08/29 09:24:28;;;;;;;4.75;2.10;;;19.10;99.90;;;;;;5111791;28;20517;-75
2023/08/29 09:27:14;;;;;;;4.88;2.10;;;19.20;99.90;;;;;;5111663;28;20407;-73
2023/08/29 09:30:10;;;;;;;5.20;1.63;;;19.30;99.90;;;;;;5109515;28;20495;-75
2023/08/29 09:33:07;;;;;;;3.42;1.67;;;19.30;99.90;;;;;;5110486;28;20051;-70
2023/08/29 09:35:53;;;;;;;5.30;2.33;;;19.50;99.90;;;;;;5111776;28;20086;-80
2023/08/29 09:38:40;;;;;;;2.95;1.48;;;19.60;99.90;;;;;;5111991;28;20142;-75
2023/08/29 09:41:26;;;;;;;3.35;2.13;;;19.70;99.90;;;;;;5112299;28;20051;-80
2023/08/29 09:44:12;;;;;;;4.95;2.15;;;19.70;99.90;;;;;;5111850;28;20047;-75
2023/08/29 09:46:58;;;;;;;2.97;1.77;;;19.80;99.90;;;;;;5110539;28;20887;-71
2023/08/29 09:49:47;;;;;;;3.80;1.95;;;19.90;99.90;;;;;;5111358;28;20457;-71
2023/08/29 09:52:33;;;;;;;6.70;2.00;;;19.90;99.90;;;;;;5110900;28;20072;-71
2023/08/29 09:55:21;;;;;;;3.90;2.10;;;20.00;99.90;;;;;;5111236;28;20054;-74
2023/08/29 09:58:09;;;;;;;4.90;2.15;;;20.20;99.90;;;;;;5111898;28;20047;-77
2023/08/29 10:00:59;;;;;;;3.38;1.70;;;20.20;99.90;;;;;;5109998;28;20056;-75
2023/08/29 10:03:47;;;;;;;4.07;1.70;;;20.30;99.90;;;;;;5112011;28;20052;-73
2023/08/29 10:06:36;;;;;;;4.38;1.80;;;20.40;99.90;;;;;;5111744;28;20043;-74
2023/08/29 10:09:25;;;;;;;2.75;1.65;;;20.50;99.90;;;;;;5110470;28;20040;-74
2023/08/29 10:12:13;;;;;;;3.35;1.65;;;20.50;99.90;;;;;;5110248;28;20109;-71
2023/08/29 10:15:00;;;;;;;2.58;1.33;;;20.40;99.90;;;;;;5109809;28;20517;-71
2023/08/29 10:17:48;;;;;;;2.75;1.65;;;20.70;99.90;;;;;;5111843;28;20075;-73
2023/08/29 10:20:36;;;;;;;5.38;1.63;;;20.80;99.90;;;;;;5111396;28;20048;-75
2023/08/29 10:23:23;;;;;;;5.82;2.63;;;20.70;99.90;;;;;;5111120;28;20127;-75
2023/08/29 10:26:09;;;;;;;4.15;2.10;;;20.70;99.90;;;;;;5111108;28;20124;-74
2023/08/29 10:28:56;;;;;;;3.45;1.60;;;20.60;99.90;;;;;;5115114;28;20095;-76
2023/08/29 10:31:45;;;;;;;3.70;1.80;;;20.70;99.90;;;;;;5116296;28;20466;-75
2023/08/29 10:34:31;;;;;;;4.68;1.63;;;20.80;99.90;;;;;;5116953;28;20055;-79
2023/08/29 10:37:20;;;;;;;11.27;2.42;;;20.90;99.90;;;;;;5114835;28;20487;-74
2023/08/29 10:40:11;;;;;;;3.00;1.63;;;21.20;99.90;;;;;;5114663;28;20803;-72
2023/08/29 10:43:00;;;;;;;3.78;1.50;;;21.20;99.90;;;;;;5114128;28;20051;-73
2023/08/29 10:45:48;;;;;;;4.75;1.80;;;21.40;99.90;;;;;;5114143;28;20051;-71
2023/08/29 10:48:41;;;;;;;3.92;2.40;;;21.40;99.90;;;;;;5115413;28;20108;-74
2023/08/29 10:51:27;;;;;;;4.65;2.08;;;21.40;99.90;;;;;;5114408;28;20503;-77
2023/08/29 10:54:13;;;;;;;6.55;1.98;;;21.50;99.90;;;;;;5114799;28;20047;-71
2023/08/29 10:57:00;;;;;;;5.40;2.70;;;21.70;99.90;;;;;;5114620;28;20059;-72
2023/08/29 10:59:46;;;;;;;4.95;2.47;;;21.60;99.90;;;;;;5114327;28;20057;-73
2023/08/29 11:02:41;;;;;;;4.50;1.83;;;21.60;99.90;;;;;;5113291;28;20047;-71
2023/08/29 11:05:27;;;;;;;4.32;1.90;;;21.80;99.90;;;;;;5114227;28;20052;-81
2023/08/29 11:08:23;;;;;;;2.58;1.10;;;21.80;99.90;;;;;;5115124;28;20457;-76
2023/08/29 11:11:12;;;;;;;3.15;1.17;;;21.90;99.90;;;;;;5114839;28;20052;-73
2023/08/29 11:14:08;;;;;;;2.05;1.02;;;22.30;99.90;;;;;;5112765;28;20048;-71
2023/08/29 11:17:14;;;;;;;4.00;1.30;;;22.30;98.60;;;;;;5113243;28;20078;-70
2023/08/29 11:20:02;;;;;;;2.78;1.15;;;22.20;99.90;;;;;;5114406;28;20078;-72
2023/08/29 11:22:48;;;;;;;4.53;1.30;;;22.30;99.90;;;;;;5115208;27;20055;-75
2023/08/29 11:25:38;;;;;;;4.63;1.00;;;22.20;99.90;;;;;;5113869;28;20775;-77
2023/08/29 11:28:24;;;;;;;2.88;0.93;;;22.30;99.90;;;;;;5111876;28;20054;-83
2023/08/29 11:31:10;;;;;;;1.77;0.73;;;22.50;99.80;;;;;;5113477;28;20063;-83
2023/08/29 11:33:56;;;;;;;3.03;0.80;;;22.60;99.80;;;;;;5117849;28;20143;-82
2023/08/29 11:36:45;;;;;;;2.78;1.17;;;22.50;99.50;;;;;;5118630;28;20071;-85
2023/08/29 11:39:31;;;;;;;3.80;1.70;;;22.60;99.70;;;;;;5112670;28;20070;-84
2023/08/29 11:42:20;;;;;;;3.22;1.55;;;22.80;99.40;;;;;;5112391;28;20047;-83
2023/08/29 11:45:08;;;;;;;3.58;1.67;;;22.60;99.30;;;;;;5114429;28;20131;-81
2023/08/29 11:47:54;;;;;;;3.20;1.75;;;22.70;99.50;;;;;;5112662;28;20051;-82
2023/08/29 11:50:40;;;;;;;5.00;1.38;;;22.60;99.60;;;;;;5113783;28;20094;-78
2023/08/29 11:53:31;;;;;;;2.60;1.10;;;22.60;99.90;;;;;;5113451;28;20087;-82
2023/08/29 11:56:17;;;;;;;3.35;1.50;;;22.50;99.50;;;;;;5113617;28;20100;-73
2023/08/29 11:59:03;;;;;;;3.88;1.65;;;22.50;99.30;;;;;;5112611;28;20085;-79
2023/08/29 12:01:50;;;;;;;3.45;1.23;;;22.60;99.00;;;;;;5112528;28;20048;-83
2023/08/29 12:04:40;;;;;;;4.97;1.40;;;22.80;99.00;;;;;;5111385;28;20040;-72
2023/08/29 12:07:32;;;;;;;3.72;1.33;;;22.80;99.10;;;;;;5114774;28;20056;-71
2023/08/29 12:10:19;;;;;;;3.58;1.40;;;23.20;98.80;;;;;;5111920;28;20046;-81
2023/08/29 12:13:12;;;;;;;3.17;1.50;;;23.50;97.70;;;;;;5112967;28;20515;-80
2023/08/29 12:15:58;;;;;;;3.60;1.60;;;23.40;96.20;;;;;;5111695;28;20510;-75
2023/08/29 12:18:44;;;;;;;3.75;1.77;;;23.80;96.80;;;;;;5112824;28;20509;-73
2023/08/29 12:21:30;;;;;;;5.07;1.50;;;23.60;96.60;;;;;;5112907;28;20102;-79
2023/08/29 12:24:17;;;;;;;3.72;1.60;;;23.40;96.20;;;;;;5113316;28;20068;-84
2023/08/29 12:27:07;;;;;;;5.05;3.05;;;23.50;96.50;;;;;;5111270;28;20051;-75
2023/08/29 12:29:53;;;;;;;4.47;2.40;;;23.60;95.80;;;;;;5112826;28;20075;-79
2023/08/29 12:32:43;;;;;;;5.10;2.35;;;23.80;95.50;;;;;;5113017;28;20116;-81
2023/08/29 12:35:29;;;;;;;5.07;2.45;;;24.00;95.70;;;;;;5112928;28;20047;-75
2023/08/29 12:38:16;;;;;;;4.07;2.10;;;24.40;95.10;;;;;;5113603;28;20051;-74
2023/08/29 12:41:03;;;;;;;3.90;2.47;;;24.50;94.60;;;;;;5114143;28;20050;-77
2023/08/29 12:43:49;;;;;;;6.05;2.35;;;24.90;94.10;;;;;;5111669;28;20113;-82
2023/08/29 12:46:35;;;;;;;2.92;1.52;;;25.50;94.20;;;;;;5111463;28;20047;-85
2023/08/29 12:49:21;;;;;;;2.83;1.67;;;26.00;94.10;;;;;;5111482;28;20546;-79
2023/08/29 12:52:07;;;;;;;4.60;1.27;;;25.80;93.80;;;;;;5111296;28;20066;-73
2023/08/29 12:54:53;;;;;;;1.67;0.70;;;25.60;93.80;;;;;;5111205;28;20510;-72
2023/08/29 12:57:39;;;;;;;2.55;0.88;;;25.20;94.20;;;;;;5111177;28;20234;-74
2023/08/29 13:00:25;;;;;;;2.47;0.88;;;24.80;94.50;;;;;;5112783;28;20055;-71
2023/08/29 13:03:11;;;;;;;4.78;1.00;;;24.40;94.80;;;;;;5112392;28;20495;-84
2023/08/29 13:05:57;;;;;;;3.90;1.13;;;23.90;95.10;;;;;;5110164;28;20062;-71
2023/08/29 13:08:43;;;;;;;2.88;1.10;;;23.50;95.60;;;;;;5112255;28;20051;-71
2023/08/29 13:11:29;;;;;;;3.03;0.98;;;23.20;95.90;;;;;;5111754;28;20112;-76
2023/08/29 13:14:16;;;;;;;2.97;0.93;;;23.00;96.10;;;;;;5111947;28;20135;-73
2023/08/29 13:17:04;;;;;;;3.30;0.95;;;22.80;96.20;;;;;;5111224;28;20495;-76
2023/08/29 13:19:50;;;;;;;4.47;1.10;;;22.50;96.40;;;;;;5112894;28;20127;-73
2023/08/29 13:22:39;;;;;;;4.28;1.48;;;22.30;96.30;;;;;;5110788;28;20054;-72
2023/08/29 13:25:25;;;;;;;3.33;1.02;;;22.20;95.90;;;;;;5109768;28;20107;-72
2023/08/29 13:28:11;;;;;;;4.00;1.10;;;22.50;96.30;;;;;;5111911;28;20056;-72
2023/08/29 13:31:00;;;;;;;2.67;1.00;;;22.90;95.90;;;;;;5110733;28;20452;-77
2023/08/29 13:33:48;;;;;;;4.35;1.00;;;22.90;95.30;;;;;;5110674;28;20156;-72
2023/08/29 13:36:34;;;;;;;4.63;1.55;;;22.80;94.50;;;;;;5109448;28;20558;-74
2023/08/29 13:39:20;;;;;;;3.50;0.90;;;22.70;94.40;;;;;;5110573;28;20048;-72
2023/08/29 13:42:06;;;;;;;3.85;1.10;;;23.10;94.20;;;;;;5110588;28;20491;-78
2023/08/29 13:44:55;;;;;;;4.05;1.10;;;23.40;93.20;;;;;;5109874;28;20051;-80
2023/08/29 13:47:42;;;;;;;3.95;1.25;;;23.20;92.70;;;;;;5109176;28;20078;-76
2023/08/29 13:50:28;;;;;;;4.65;1.05;;;23.10;93.40;;;;;;5112321;28;20051;-75
2023/08/29 13:53:14;;;;;;;3.13;1.10;;;24.20;93.50;;;;;;5110211;28;20055;-74
2023/08/29 13:56:00;;;;;;;3.60;1.17;;;24.40;92.70;;;;;;5111792;28;20105;-74
2023/08/29 13:58:47;;;;;;;4.97;1.13;;;23.90;92.50;;;;;;5111442;28;20518;-74
2023/08/29 14:01:33;;;;;;;6.18;1.20;;;23.50;93.00;;;;;;5110473;28;20044;-73
2023/08/29 14:04:19;;;;;;;3.10;1.17;;;23.40;93.80;;;;;;5110016;28;20104;-70
2023/08/29 14:07:05;;;;;;;3.08;1.00;;;23.10;94.40;;;;;;5109734;28;20545;-73
2023/08/29 14:09:51;;;;;;;2.53;1.02;;;22.90;94.60;;;;;;5110120;28;20087;-77
2023/08/29 14:12:37;;;;;;;2.58;0.95;;;22.80;94.90;;;;;;5109487;28;20523;-70
2023/08/29 14:15:26;;;;;;;2.03;0.80;;;22.70;95.40;;;;;;5109415;28;20109;-70
2023/08/29 14:18:12;;;;;;;2.15;0.80;;;22.60;95.50;;;;;;5111068;28;20570;-79
2023/08/29 14:20:58;;;;;;;3.03;1.10;;;23.00;94.80;;;;;;5111191;28;20048;-74
2023/08/29 14:23:44;;;;;;;1.98;0.80;;;23.00;94.60;;;;;;5110207;28;20051;-75
2023/08/29 14:26:30;;;;;;;3.30;1.00;;;23.00;95.00;;;;;;5110070;28;20207;-75
2023/08/29 14:29:16;;;;;;;2.65;1.05;;;23.10;95.00;;;;;;5110268;28;20043;-76
2023/08/29 14:32:03;;;;;;;3.15;1.10;;;22.80;94.70;;;;;;5111290;28;20411;-85